Time;durP1;ratioP1;P1;durP2;ratioP2;P2;SDS_P1;SDS_P2;PMS_P1;PMS_P2;Temp;Humidity;BMP_temperature;BMP_pressure;BME280_temperature;BME280_humidity;BME280_pressure;Samples;Min_cycle;Max_cycle;Signal;HPM_P1;HPM_P2
2023/02/16 00:01:26;;;;;;;32.28;15.85;;;2.60;99.90;;;;;;4977793;28;20442;-64
2023/02/16 00:03:53;;;;;;;32.35;15.07;;;2.50;99.90;;;;;;4987464;28;20101;-66
2023/02/16 00:06:19;;;;;;;37.17;16.20;;;2.40;99.90;;;;;;4978147;28;20019;-66
2023/02/16 00:08:50;;;;;;;33.90;16.25;;;2.40;99.90;;;;;;4978837;28;20088;-67
2023/02/16 00:14:08;;;;;;;37.22;16.35;;;2.40;99.90;;;;;;4977044;28;20038;-64
2023/02/16 00:16:34;;;;;;;38.90;16.55;;;2.40;99.90;;;;;;4982008;28;20412;-66
2023/02/16 00:19:00;;;;;;;37.95;16.88;;;2.40;99.90;;;;;;4984549;28;20022;-65
2023/02/16 00:21:25;;;;;;;34.42;16.60;;;2.40;99.90;;;;;;4977536;28;20034;-65
2023/02/16 00:23:51;;;;;;;42.60;18.00;;;2.40;99.90;;;;;;4960881;28;20023;-66
2023/02/16 00:26:24;;;;;;;35.15;16.63;;;2.30;99.90;;;;;;4975982;28;20035;-66
2023/02/16 00:28:53;;;;;;;30.98;15.48;;;2.30;99.90;;;;;;4981298;28;20084;-65
2023/02/16 00:31:30;;;;;;;34.50;16.10;;;2.30;99.90;;;;;;4983492;28;20034;-66
2023/02/16 00:33:57;;;;;;;38.92;15.60;;;2.20;99.90;;;;;;4981795;28;20509;-66
2023/02/16 00:36:22;;;;;;;36.67;14.90;;;2.20;99.90;;;;;;4987810;28;20108;-67
2023/02/16 00:38:48;;;;;;;38.33;16.38;;;2.20;99.90;;;;;;4970126;28;20066;-66
2023/02/16 00:44:02;;;;;;;32.67;15.20;;;2.10;99.90;;;;;;4987766;28;20033;-67
2023/02/16 00:46:28;;;;;;;34.75;15.63;;;2.10;99.90;;;;;;4989015;28;20042;-67
2023/02/16 00:48:53;;;;;;;39.42;16.85;;;2.00;99.90;;;;;;4984817;28;20502;-66
2023/02/16 00:51:19;;;;;;;39.28;17.05;;;2.00;99.90;;;;;;4970850;28;20065;-66
2023/02/16 00:53:44;;;;;;;45.40;17.38;;;1.90;99.90;;;;;;4978345;28;20045;-67
2023/02/16 00:56:15;;;;;;;36.55;17.10;;;1.90;99.90;;;;;;4983293;28;20104;-67
2023/02/16 00:58:41;;;;;;;39.42;16.23;;;1.90;99.90;;;;;;4982905;28;20035;-66
2023/02/16 01:01:14;;;;;;;36.47;17.15;;;1.80;99.90;;;;;;4981272;28;20070;-65
2023/02/16 01:03:41;;;;;;;40.13;17.73;;;1.90;99.90;;;;;;4980712;28;20023;-64
2023/02/16 01:11:37;;;;;;;37.63;16.85;;;1.70;99.90;;;;;;4975054;28;19929;-64
2023/02/16 01:14:03;;;;;;;41.15;17.83;;;1.80;99.90;;;;;;4970640;28;20038;-66
2023/02/16 01:16:40;;;;;;;43.55;18.80;;;1.70;99.90;;;;;;4971768;28;20073;-64
2023/02/16 01:19:06;;;;;;;44.85;18.80;;;1.70;99.90;;;;;;4972966;28;20061;-65
2023/02/16 01:21:32;;;;;;;45.40;18.65;;;1.70;99.90;;;;;;4963434;28;20022;-67
2023/02/16 01:23:58;;;;;;;41.78;18.20;;;1.70;99.90;;;;;;4960884;28;20030;-65
2023/02/16 01:26:24;;;;;;;46.03;19.25;;;1.70;99.90;;;;;;4976447;28;20038;-66
2023/02/16 01:28:49;;;;;;;48.60;19.48;;;1.70;99.90;;;;;;4979944;28;20033;-65
2023/02/16 01:31:15;;;;;;;45.42;18.73;;;1.70;99.90;;;;;;4978343;28;20030;-66
2023/02/16 01:33:42;;;;;;;46.00;17.67;;;1.60;99.90;;;;;;4973226;28;20038;-67
2023/02/16 01:36:38;;;;;;;42.47;17.98;;;1.60;99.90;;;;;;4978301;28;20381;-67
2023/02/16 01:39:04;;;;;;;40.10;17.67;;;1.60;99.90;;;;;;4980986;28;20682;-65
2023/02/16 01:41:44;;;;;;;43.15;17.67;;;1.60;99.90;;;;;;4981634;28;20018;-67
2023/02/16 01:44:15;;;;;;;47.25;18.90;;;1.60;99.90;;;;;;4978949;28;20370;-65
2023/02/16 01:46:46;;;;;;;42.40;17.30;;;1.70;99.90;;;;;;4979870;28;20110;-66
2023/02/16 01:49:13;;;;;;;43.92;18.63;;;1.60;99.90;;;;;;4981630;28;20421;-66
2023/02/16 01:52:24;;;;;;;36.65;18.25;;;1.70;99.90;;;;;;4978539;28;20030;-67
2023/02/16 01:54:54;;;;;;;37.70;17.13;;;1.60;99.90;;;;;;4954170;28;20038;-66
2023/02/16 01:57:41;;;;;;;38.38;17.10;;;1.60;99.90;;;;;;4965641;28;20030;-66
2023/02/16 02:00:26;;;;;;;45.95;18.45;;;1.70;99.90;;;;;;4982696;28;20030;-66
2023/02/16 02:05:33;;;;;;;46.38;17.90;;;1.60;99.90;;;;;;4977132;28;21842;-68
2023/02/16 02:05:45;;;;;;;40.50;18.08;;;1.60;99.90;;;;;;4975916;28;20852;-66
2023/02/16 02:08:19;;;;;;;42.85;17.75;;;1.50;99.90;;;;;;4976957;28;20121;-66
2023/02/16 02:10:54;;;;;;;;;;;1.50;99.90;;;;;;4967986;28;20438;-66
2023/02/16 02:13:29;;;;;;;;;;;1.50;99.90;;;;;;4978865;28;19924;-65
2023/02/16 02:15:58;;;;;;;38.83;18.15;;;1.50;99.90;;;;;;4970911;28;19940;-65
2023/02/16 02:18:23;;;;;;;40.95;16.95;;;1.40;99.90;;;;;;4976419;28;20846;-66
2023/02/16 02:23:47;;;;;;;43.33;18.90;;;1.30;99.90;;;;;;4975906;28;20045;-67
2023/02/16 02:26:19;;;;;;;45.17;19.13;;;1.30;99.90;;;;;;4979208;28;20129;-66
2023/02/16 02:28:59;;;;;;;42.72;18.52;;;1.20;99.90;;;;;;4977023;28;20026;-67
2023/02/16 02:31:47;;;;;;;43.08;17.55;;;1.20;99.90;;;;;;4975512;28;20030;-66
2023/02/16 02:34:40;;;;;;;44.17;19.48;;;1.20;99.90;;;;;;4974954;28;20125;-65
2023/02/16 02:37:21;;;;;;;43.78;19.60;;;1.30;99.90;;;;;;4974062;28;20045;-66
2023/02/16 02:40:02;;;;;;;47.38;19.67;;;1.20;99.90;;;;;;4977974;28;20057;-66
2023/02/16 02:43:05;;;;;;;44.08;19.05;;;1.30;99.90;;;;;;4977505;28;20030;-66
2023/02/16 02:45:39;;;;;;;40.08;17.30;;;1.20;99.90;;;;;;4954251;28;20643;-65
2023/02/16 02:48:05;;;;;;;43.67;18.65;;;1.20;99.90;;;;;;4977446;28;20018;-66
2023/02/16 02:51:27;;;;;;;44.20;18.65;;;1.10;99.90;;;;;;4977939;28;20027;-66
2023/02/16 03:00:39;;;;;;;49.50;19.48;;;1.10;99.90;;;;;;4972802;28;20046;-66
2023/02/16 03:02:23;;;;;;;40.15;17.98;;;1.00;99.90;;;;;;5010547;28;20244;-65
2023/02/16 03:04:51;;;;;;;52.33;21.65;;;1.00;99.90;;;;;;5013879;28;20037;-66
2023/02/16 03:07:17;;;;;;;40.50;18.65;;;1.00;99.90;;;;;;5015071;28;20038;-65
2023/02/16 03:09:43;;;;;;;42.78;18.48;;;1.10;99.90;;;;;;5023365;28;20038;-66
2023/02/16 03:14:58;;;;;;;40.65;17.70;;;1.10;99.90;;;;;;5016639;28;20039;-66
2023/02/16 03:31:27;;;;;;;48.47;18.90;;;1.00;99.90;;;;;;5015654;28;20078;-66
2023/02/16 03:33:53;;;;;;;50.78;19.45;;;1.00;99.90;;;;;;5016722;28;20048;-66
2023/02/16 03:36:25;;;;;;;41.70;18.60;;;1.00;99.90;;;;;;5017975;28;20026;-66
2023/02/16 03:38:52;;;;;;;41.70;18.27;;;1.00;99.90;;;;;;5016003;28;20112;-66
2023/02/16 03:41:17;;;;;;;51.45;21.77;;;0.90;99.90;;;;;;5015703;28;20022;-65
2023/02/16 03:43:43;;;;;;;48.65;19.83;;;0.90;99.90;;;;;;5016345;28;20030;-66
2023/02/16 03:46:08;;;;;;;42.55;17.70;;;0.90;99.90;;;;;;5019158;28;20041;-66
2023/02/16 03:48:34;;;;;;;51.58;19.55;;;0.90;99.90;;;;;;5019720;28;20488;-66
2023/02/16 03:51:00;;;;;;;46.58;19.35;;;0.80;99.90;;;;;;5016092;28;20100;-65
2023/02/16 03:53:25;;;;;;;46.17;20.58;;;0.80;99.90;;;;;;5014430;28;20052;-66
2023/02/16 03:55:51;;;;;;;47.70;19.75;;;0.70;99.90;;;;;;5016747;28;20353;-65
2023/02/16 03:58:20;;;;;;;45.47;19.52;;;0.70;99.90;;;;;;5015775;28;20061;-65
2023/02/16 04:00:45;;;;;;;48.45;20.23;;;0.60;99.90;;;;;;5018424;28;20030;-65
2023/02/16 04:03:11;;;;;;;50.35;20.65;;;0.60;99.90;;;;;;5013644;28;20040;-66
2023/02/16 04:05:37;;;;;;;42.28;19.15;;;0.60;99.90;;;;;;5018567;28;20583;-66
2023/02/16 04:08:04;;;;;;;52.35;20.98;;;0.60;99.90;;;;;;5010534;28;20026;-65
2023/02/16 04:10:30;;;;;;;49.13;20.33;;;0.60;99.90;;;;;;5017208;28;20030;-66
2023/02/16 04:12:55;;;;;;;50.38;21.00;;;0.60;99.90;;;;;;5021576;28;20104;-66
2023/02/16 04:15:25;;;;;;;47.08;20.70;;;0.60;99.90;;;;;;5014318;28;20101;-65
2023/02/16 04:17:51;;;;;;;41.88;20.20;;;0.70;99.90;;;;;;5016431;28;20029;-66
2023/02/16 04:20:19;;;;;;;51.03;21.95;;;0.60;99.90;;;;;;5014331;28;20029;-66
2023/02/16 04:22:45;;;;;;;45.03;20.38;;;0.60;99.90;;;;;;5011124;28;20508;-66
2023/02/16 04:25:11;;;;;;;49.38;20.13;;;0.60;99.90;;;;;;5015141;28;20025;-65
2023/02/16 04:27:38;;;;;;;45.72;19.20;;;0.60;99.90;;;;;;5015167;28;20037;-66
2023/02/16 04:30:04;;;;;;;47.38;19.38;;;0.50;99.90;;;;;;5015567;28;20036;-65
2023/02/16 04:32:30;;;;;;;54.35;23.33;;;0.50;99.90;;;;;;5011486;28;20072;-65
2023/02/16 04:34:56;;;;;;;50.08;20.88;;;0.50;99.90;;;;;;5012920;28;20153;-66
2023/02/16 04:37:21;;;;;;;44.55;19.85;;;0.50;99.90;;;;;;5012702;28;20093;-66
2023/02/16 04:39:47;;;;;;;52.47;21.35;;;0.50;99.90;;;;;;5014525;28;20029;-66
2023/02/16 04:42:12;;;;;;;56.97;22.67;;;0.50;99.90;;;;;;5000852;28;21517;-65
2023/02/16 04:44:38;;;;;;;53.85;21.92;;;0.50;99.90;;;;;;5013484;28;20038;-66
2023/02/16 04:47:04;;;;;;;51.50;19.65;;;0.50;99.90;;;;;;5011644;28;20052;-65
2023/02/16 04:49:29;;;;;;;58.47;20.58;;;0.60;99.90;;;;;;5016669;28;20519;-65
2023/02/16 04:51:55;;;;;;;54.42;20.70;;;0.60;99.90;;;;;;5012657;28;20030;-66
2023/02/16 04:54:21;;;;;;;49.38;20.50;;;0.60;99.90;;;;;;5013729;28;20561;-66
2023/02/16 04:56:48;;;;;;;45.28;20.13;;;0.60;99.90;;;;;;5017568;28;20109;-67
2023/02/16 04:59:14;;;;;;;54.00;20.98;;;0.50;99.90;;;;;;5013361;28;20030;-66
2023/02/16 05:01:41;;;;;;;45.53;19.02;;;0.50;99.90;;;;;;5023827;28;20018;-66
2023/02/16 05:04:10;;;;;;;51.80;21.17;;;0.50;99.90;;;;;;4997944;28;20483;-66
2023/02/16 05:06:37;;;;;;;48.78;20.08;;;0.50;99.90;;;;;;5017477;28;20128;-66
2023/02/16 05:09:04;;;;;;;51.28;21.00;;;0.50;99.90;;;;;;5012637;28;20028;-66
2023/02/16 05:17:10;;;;;;;62.13;22.75;;;0.70;99.90;;;;;;5022477;28;20095;-66
2023/02/16 05:19:35;;;;;;;52.05;22.25;;;0.80;99.90;;;;;;5019911;28;20784;-66
2023/02/16 05:22:02;;;;;;;49.92;21.17;;;0.80;99.90;;;;;;5022050;28;20026;-65
2023/02/16 05:24:27;;;;;;;47.28;20.20;;;0.80;99.90;;;;;;5019745;28;20029;-66
2023/02/16 05:26:53;;;;;;;55.20;22.92;;;0.80;99.90;;;;;;5023168;28;20041;-66
2023/02/16 05:29:19;;;;;;;51.92;22.85;;;0.80;99.90;;;;;;5014382;28;20030;-65
2023/02/16 05:31:44;;;;;;;48.42;21.70;;;0.80;99.90;;;;;;5003767;28;20467;-66
2023/02/16 05:34:10;;;;;;;48.50;20.80;;;0.80;99.90;;;;;;5005006;28;20446;-65
2023/02/16 05:36:36;;;;;;;53.65;22.83;;;0.80;99.90;;;;;;5015210;28;20120;-65
2023/02/16 05:39:01;;;;;;;46.63;20.75;;;0.80;99.90;;;;;;5017950;28;20170;-66
2023/02/16 05:41:27;;;;;;;52.38;22.30;;;0.80;99.90;;;;;;5024824;28;20100;-66
2023/02/16 05:43:58;;;;;;;50.85;21.05;;;0.80;99.90;;;;;;5019272;28;20021;-66
2023/02/16 05:46:25;;;;;;;56.28;22.33;;;0.90;99.90;;;;;;5018382;28;20708;-66
2023/02/16 05:48:51;;;;;;;50.63;20.50;;;0.80;99.90;;;;;;5019096;28;20382;-66
2023/02/16 05:51:17;;;;;;;50.22;20.85;;;0.70;99.90;;;;;;5017014;28;20121;-65
2023/02/16 05:53:43;;;;;;;51.97;20.13;;;0.80;99.90;;;;;;5016143;28;20504;-65
2023/02/16 05:56:09;;;;;;;48.08;20.73;;;0.80;99.90;;;;;;5021407;28;20071;-66
2023/02/16 05:58:34;;;;;;;57.83;22.38;;;0.70;99.90;;;;;;5019447;28;20060;-67
2023/02/16 06:01:00;;;;;;;51.63;20.48;;;0.70;99.90;;;;;;5018561;28;20025;-66
2023/02/16 06:03:26;;;;;;;41.22;19.88;;;0.70;99.90;;;;;;5023077;28;20052;-67
2023/02/16 06:05:56;;;;;;;52.22;20.95;;;0.60;99.90;;;;;;5003190;28;20029;-65
2023/02/16 06:08:22;;;;;;;51.15;20.67;;;0.50;99.90;;;;;;5021506;28;20161;-66
2023/02/16 06:10:49;;;;;;;44.97;20.55;;;0.60;99.90;;;;;;5023828;28;20116;-64
2023/02/16 06:13:15;;;;;;;54.88;21.40;;;0.50;99.90;;;;;;5023753;28;20500;-65
2023/02/16 06:15:42;;;;;;;52.15;21.10;;;0.70;99.90;;;;;;5002026;28;20443;-66
2023/02/16 06:18:10;;;;;;;54.33;23.23;;;0.70;99.90;;;;;;5021431;28;20014;-65
2023/02/16 06:20:39;;;;;;;50.60;23.30;;;0.70;99.90;;;;;;5016089;28;20501;-65
2023/02/16 06:23:06;;;;;;;51.55;20.95;;;0.70;99.90;;;;;;5011523;28;20033;-66
2023/02/16 06:25:32;;;;;;;51.88;21.90;;;0.70;99.90;;;;;;5013027;28;20163;-66
2023/02/16 06:27:58;;;;;;;43.88;20.50;;;0.80;99.90;;;;;;5016052;28;20042;-65
2023/02/16 06:30:24;;;;;;;54.40;22.02;;;0.80;99.90;;;;;;5016841;28;20033;-66
2023/02/16 06:32:50;;;;;;;41.78;18.92;;;0.80;99.90;;;;;;5017855;28;20038;-66
2023/02/16 06:35:16;;;;;;;53.53;22.45;;;0.80;99.90;;;;;;5017702;28;20492;-66
2023/02/16 06:37:42;;;;;;;53.63;21.60;;;0.80;99.90;;;;;;5016416;28;20034;-66
2023/02/16 06:40:10;;;;;;;47.63;21.30;;;0.80;99.90;;;;;;4999317;28;20101;-67
2023/02/16 06:42:36;;;;;;;54.08;21.52;;;0.80;99.90;;;;;;5013308;28;20025;-66
2023/02/16 06:45:03;;;;;;;55.00;21.58;;;0.80;99.90;;;;;;5018189;28;20029;-66
2023/02/16 06:47:28;;;;;;;50.22;19.02;;;0.80;99.90;;;;;;5012383;28;20120;-66
2023/02/16 06:49:54;;;;;;;49.05;20.48;;;0.80;99.90;;;;;;5017784;28;20530;-66
2023/02/16 06:52:20;;;;;;;49.42;20.05;;;0.80;99.90;;;;;;5015459;28;20507;-66
2023/02/16 06:54:45;;;;;;;46.20;19.75;;;0.90;99.90;;;;;;5019188;28;20503;-66
2023/02/16 06:57:11;;;;;;;49.80;20.45;;;0.90;99.90;;;;;;5016321;28;20503;-65
2023/02/16 06:59:36;;;;;;;45.15;20.75;;;1.00;99.90;;;;;;5015501;28;20111;-66
2023/02/16 07:02:02;;;;;;;52.72;20.45;;;1.00;99.90;;;;;;5015389;28;20035;-65
2023/02/16 07:04:28;;;;;;;47.10;20.98;;;1.00;99.90;;;;;;5016022;28;20083;-66
2023/02/16 07:06:53;;;;;;;42.88;19.65;;;1.10;99.90;;;;;;5014905;28;20584;-65
2023/02/16 07:09:19;;;;;;;45.05;20.08;;;1.20;99.90;;;;;;5026519;28;20164;-67
2023/02/16 07:11:44;;;;;;;45.40;18.88;;;1.30;99.90;;;;;;5013998;28;20037;-66
2023/02/16 07:14:10;;;;;;;44.40;19.42;;;1.40;99.90;;;;;;5018596;28;20037;-66
2023/02/16 07:16:36;;;;;;;43.13;19.58;;;1.50;99.90;;;;;;5022288;28;20036;-66
2023/02/16 07:19:01;;;;;;;43.22;19.70;;;1.70;99.90;;;;;;5022785;28;20025;-67
2023/02/16 07:21:27;;;;;;;41.65;20.05;;;1.80;99.90;;;;;;5024732;28;20021;-66
2023/02/16 07:23:52;;;;;;;49.35;18.85;;;1.90;99.90;;;;;;5026026;28;20049;-68
2023/02/16 07:26:18;;;;;;;43.13;18.15;;;2.10;99.90;;;;;;5028943;28;20079;-66
2023/02/16 07:28:44;;;;;;;39.50;19.13;;;2.40;99.90;;;;;;5024370;28;20045;-67
2023/02/16 07:31:13;;;;;;;37.13;17.67;;;2.50;99.90;;;;;;5030302;28;20029;-65
2023/02/16 07:33:39;;;;;;;38.35;18.35;;;2.70;99.90;;;;;;5027526;28;20033;-66
2023/02/16 07:36:05;;;;;;;37.22;18.50;;;3.00;99.90;;;;;;5025770;28;20029;-66
2023/02/16 07:38:31;;;;;;;33.75;17.13;;;3.20;99.90;;;;;;5025411;28;20029;-66
2023/02/16 07:40:57;;;;;;;39.85;17.65;;;3.30;99.90;;;;;;5012044;28;20686;-66
2023/02/16 07:43:24;;;;;;;34.50;16.23;;;3.40;99.90;;;;;;5026353;28;20060;-66
2023/02/16 07:45:50;;;;;;;34.47;15.30;;;3.50;99.90;;;;;;5023472;28;20104;-67
2023/02/16 07:48:16;;;;;;;33.30;16.10;;;3.60;99.90;;;;;;5026546;28;20128;-66
2023/02/16 07:50:41;;;;;;;32.65;15.95;;;3.60;99.90;;;;;;5030350;28;20017;-66
2023/02/16 07:53:07;;;;;;;35.72;15.88;;;3.70;99.90;;;;;;5028369;28;20026;-65
2023/02/16 07:55:38;;;;;;;35.47;15.75;;;3.80;99.90;;;;;;5029024;28;20033;-66
2023/02/16 07:58:03;;;;;;;35.70;17.33;;;3.80;99.90;;;;;;5025680;28;20099;-66
2023/02/16 08:00:29;;;;;;;35.78;16.73;;;3.70;99.90;;;;;;5029526;28;20504;-67
2023/02/16 08:02:54;;;;;;;36.28;16.80;;;3.70;99.90;;;;;;5029436;28;20053;-66
2023/02/16 08:05:20;;;;;;;35.53;17.00;;;3.60;99.90;;;;;;5029790;28;20067;-67
2023/02/16 08:07:46;;;;;;;36.47;16.27;;;3.60;99.90;;;;;;5026005;28;20105;-66
2023/02/16 08:10:12;;;;;;;37.58;17.17;;;3.60;99.90;;;;;;5029766;28;20072;-65
2023/02/16 08:12:38;;;;;;;41.75;17.60;;;3.60;99.90;;;;;;5027816;28;20052;-67
2023/02/16 08:15:03;;;;;;;42.95;17.02;;;3.60;99.90;;;;;;5029253;28;20029;-66
2023/02/16 08:17:29;;;;;;;34.97;16.73;;;3.60;99.90;;;;;;5030133;28;20037;-66
2023/02/16 08:19:54;;;;;;;39.00;17.20;;;3.70;99.90;;;;;;5030061;28;20101;-66
2023/02/16 08:22:20;;;;;;;42.10;17.77;;;3.70;99.90;;;;;;5019372;28;20076;-66
2023/02/16 08:24:46;;;;;;;35.42;16.55;;;3.80;99.90;;;;;;5022843;28;20418;-68
2023/02/16 08:27:11;;;;;;;38.25;17.23;;;4.00;99.90;;;;;;5028557;28;20059;-65
2023/02/16 08:29:37;;;;;;;35.75;16.92;;;4.30;99.90;;;;;;5022618;28;20112;-65
2023/02/16 08:32:06;;;;;;;34.30;15.57;;;4.50;99.90;;;;;;5029208;28;20040;-66
2023/02/16 08:34:33;;;;;;;31.15;16.08;;;4.60;99.90;;;;;;5028455;28;20029;-66
2023/02/16 08:36:59;;;;;;;34.38;17.75;;;4.70;99.90;;;;;;5027303;28;20025;-67
2023/02/16 08:39:27;;;;;;;32.95;16.70;;;4.80;99.90;;;;;;5027564;28;20025;-65
2023/02/16 08:41:53;;;;;;;34.58;16.35;;;5.00;99.90;;;;;;5023774;28;20037;-67
2023/02/16 08:44:21;;;;;;;32.00;15.90;;;5.00;99.90;;;;;;5027901;28;20477;-67
2023/02/16 08:46:49;;;;;;;35.80;17.55;;;5.00;99.90;;;;;;5029295;28;20033;-66
2023/02/16 08:49:17;;;;;;;33.90;15.70;;;5.00;99.90;;;;;;5029299;28;20026;-66
2023/02/16 08:51:46;;;;;;;34.53;17.77;;;5.00;99.90;;;;;;5028794;28;20061;-66
2023/02/16 08:54:21;;;;;;;31.38;16.80;;;5.10;99.90;;;;;;5021069;28;20025;-66
2023/02/16 08:56:48;;;;;;;28.73;15.10;;;5.00;99.90;;;;;;5024246;28;20033;-66
2023/02/16 08:59:15;;;;;;;31.70;16.95;;;5.00;99.90;;;;;;5027237;28;20021;-67
2023/02/16 09:04:09;;;;;;;33.05;16.10;;;5.00;99.90;;;;;;5008487;28;20501;-66
2023/02/16 09:06:39;;;;;;;37.63;17.40;;;5.00;99.90;;;;;;5007883;28;20057;-66
2023/02/16 09:09:05;;;;;;;32.97;16.75;;;5.00;99.90;;;;;;5009978;28;20113;-66
2023/02/16 09:11:31;;;;;;;33.08;15.80;;;5.10;99.90;;;;;;5007432;28;20033;-66
2023/02/16 09:13:57;;;;;;;30.40;16.33;;;5.00;99.90;;;;;;5015770;28;20104;-67
2023/02/16 09:16:26;;;;;;;33.42;17.48;;;5.10;99.90;;;;;;5011914;28;20141;-66
2023/02/16 09:18:52;;;;;;;36.55;16.70;;;5.10;99.90;;;;;;5014076;28;20104;-66
2023/02/16 09:21:20;;;;;;;36.08;16.60;;;5.30;99.90;;;;;;5003810;28;20534;-66
2023/02/16 09:23:47;;;;;;;33.95;16.50;;;5.50;99.90;;;;;;5006139;28;20029;-66
2023/02/16 09:26:17;;;;;;;30.90;16.77;;;5.50;99.90;;;;;;5014269;28;20033;-66
2023/02/16 09:28:44;;;;;;;33.80;16.65;;;5.60;99.90;;;;;;5010879;28;20041;-66
2023/02/16 09:31:11;;;;;;;37.83;16.85;;;5.60;99.90;;;;;;5005596;28;20022;-66
2023/02/16 09:33:39;;;;;;;33.60;16.48;;;5.80;99.90;;;;;;5006806;28;20084;-66
2023/02/16 09:36:07;;;;;;;34.55;16.23;;;6.00;99.90;;;;;;5003087;28;20038;-67
2023/02/16 09:38:33;;;;;;;34.15;16.90;;;6.10;99.90;;;;;;5003106;28;20076;-66
2023/02/16 09:41:13;;;;;;;34.80;16.02;;;6.10;99.90;;;;;;5004983;28;20041;-66
2023/02/16 09:43:46;;;;;;;30.70;15.20;;;6.20;99.90;;;;;;5005631;28;20029;-66
2023/02/16 09:46:16;;;;;;;36.08;16.05;;;6.30;99.90;;;;;;5004519;28;20033;-66
2023/02/16 09:48:47;;;;;;;30.67;15.60;;;6.50;99.90;;;;;;5005862;28;20038;-66
2023/02/16 09:51:39;;;;;;;40.35;17.30;;;6.60;99.90;;;;;;5005250;28;20080;-66
2023/02/16 09:54:31;;;;;;;30.50;16.83;;;6.50;99.90;;;;;;4999590;28;20517;-66
2023/02/16 09:57:07;;;;;;;36.47;17.92;;;6.60;99.90;;;;;;5014919;28;20113;-66
2023/02/16 09:59:40;;;;;;;33.22;16.58;;;6.80;99.90;;;;;;5015068;28;20022;-66
2023/02/16 10:02:32;;;;;;;32.83;16.05;;;7.10;99.90;;;;;;5008558;28;20120;-67
2023/02/16 10:05:32;;;;;;;31.05;16.45;;;7.50;99.90;;;;;;5029313;28;20094;-66
2023/02/16 10:08:00;;;;;;;31.58;16.92;;;8.00;99.90;;;;;;5020739;28;20116;-68
2023/02/16 10:10:59;;;;;;;28.30;17.17;;;8.50;99.90;;;;;;5015889;28;20064;-67
2023/02/16 10:13:45;;;;;;;30.42;16.45;;;8.90;99.90;;;;;;5024321;28;20041;-67
2023/02/16 10:16:20;;;;;;;29.95;15.82;;;9.30;99.90;;;;;;5022195;28;20034;-66
2023/02/16 10:18:50;;;;;;;31.60;16.67;;;9.30;99.90;;;;;;5025833;28;20016;-67
2023/02/16 10:21:21;;;;;;;25.48;15.35;;;9.70;99.90;;;;;;5009451;28;20176;-66
2023/02/16 10:24:04;;;;;;;33.67;16.77;;;9.90;99.90;;;;;;5014838;28;20477;-67
2023/02/16 10:26:36;;;;;;;29.92;14.27;;;9.80;99.90;;;;;;5027692;28;20060;-66
2023/02/16 10:29:14;;;;;;;28.60;14.23;;;9.80;99.90;;;;;;5028583;28;20017;-67
2023/02/16 10:31:55;;;;;;;33.63;16.92;;;9.90;99.90;;;;;;5023328;28;20037;-68
2023/02/16 10:34:43;;;;;;;27.40;15.35;;;9.90;99.90;;;;;;5030719;28;20090;-68
2023/02/16 10:37:18;;;;;;;28.65;15.77;;;9.90;99.90;;;;;;5020512;28;20054;-67
2023/02/16 10:40:08;;;;;;;35.80;21.35;;;10.00;99.90;;;;;;5009633;28;20115;-67
2023/02/16 10:42:43;;;;;;;29.02;17.25;;;10.00;99.90;;;;;;5025017;28;20090;-68
2023/02/16 10:45:30;;;;;;;24.10;15.18;;;10.10;99.90;;;;;;5029069;28;20109;-68
2023/02/16 10:47:56;;;;;;;25.55;14.57;;;9.80;99.90;;;;;;5000569;28;20283;-67
2023/02/16 10:50:28;;;;;;;25.58;13.48;;;9.80;99.90;;;;;;5028384;28;20471;-67
2023/02/16 10:52:58;;;;;;;29.02;15.85;;;9.80;99.90;;;;;;5012443;28;20695;-68
2023/02/16 10:55:25;;;;;;;31.23;16.27;;;9.70;99.90;;;;;;5027142;28;20060;-68
2023/02/16 10:57:59;;;;;;;29.98;15.73;;;9.70;99.90;;;;;;5024462;28;20075;-67
2023/02/16 11:00:54;;;;;;;28.23;14.57;;;9.80;99.90;;;;;;5036854;28;20026;-67
2023/02/16 11:03:24;;;;;;;25.42;13.68;;;10.10;99.90;;;;;;5026065;28;20044;-67
2023/02/16 11:05:52;;;;;;;28.00;14.68;;;10.30;99.90;;;;;;5022770;28;20096;-67
2023/02/16 11:08:18;;;;;;;27.27;15.05;;;10.30;99.90;;;;;;5029501;28;20387;-67
2023/02/16 11:10:49;;;;;;;27.60;14.30;;;10.40;99.90;;;;;;5033154;28;20029;-67
2023/02/16 11:13:36;;;;;;;24.17;14.30;;;10.50;99.90;;;;;;5013790;28;20050;-66
2023/02/16 11:16:12;;;;;;;23.92;13.85;;;10.70;99.90;;;;;;5023116;28;20392;-66
2023/02/16 11:18:41;;;;;;;26.35;14.88;;;10.80;99.90;;;;;;5035999;28;20087;-66
2023/02/16 11:21:09;;;;;;;23.55;14.93;;;10.90;99.90;;;;;;5035245;28;20032;-66
2023/02/16 11:23:36;;;;;;;23.88;14.68;;;11.10;99.90;;;;;;5033091;28;20087;-66
2023/02/16 11:26:11;;;;;;;28.20;14.60;;;11.10;99.90;;;;;;5038913;28;20021;-66
2023/02/16 11:28:45;;;;;;;26.58;15.27;;;11.30;99.90;;;;;;5028907;28;20026;-66
2023/02/16 11:31:30;;;;;;;27.75;16.13;;;11.30;99.90;;;;;;5028291;28;20049;-66
2023/02/16 11:34:00;;;;;;;32.58;15.93;;;11.30;99.90;;;;;;5044130;28;20112;-66
2023/02/16 11:36:28;;;;;;;27.52;15.57;;;11.20;99.90;;;;;;5011715;28;20073;-65
2023/02/16 11:38:57;;;;;;;30.88;15.63;;;11.10;99.90;;;;;;5027911;28;20056;-66
2023/02/16 11:41:24;;;;;;;34.33;18.90;;;11.10;99.90;;;;;;5025197;28;20018;-66
2023/02/16 11:43:51;;;;;;;28.63;15.80;;;10.90;99.90;;;;;;5031678;28;20122;-65
2023/02/16 11:46:20;;;;;;;29.95;16.25;;;10.70;99.90;;;;;;5028685;28;20032;-66
2023/02/16 11:48:45;;;;;;;33.15;15.85;;;10.70;99.90;;;;;;5016226;28;20025;-66
2023/02/16 11:51:18;;;;;;;30.45;15.75;;;10.80;99.90;;;;;;5034829;28;20443;-65
2023/02/16 11:53:44;;;;;;;27.98;16.77;;;10.80;99.90;;;;;;5031766;28;22033;-65
2023/02/16 11:56:12;;;;;;;27.20;14.63;;;10.90;99.90;;;;;;5027452;28;20488;-65
2023/02/16 11:58:39;;;;;;;31.38;15.60;;;11.10;99.90;;;;;;5025437;28;20022;-66
2023/02/16 12:01:23;;;;;;;42.70;21.40;;;11.20;99.90;;;;;;5028959;28;20746;-66
2023/02/16 12:03:51;;;;;;;34.10;17.67;;;11.10;99.90;;;;;;5031464;28;20492;-66
2023/02/16 12:06:29;;;;;;;23.52;13.55;;;11.20;99.90;;;;;;5023792;28;20447;-66
2023/02/16 12:09:07;;;;;;;28.63;15.95;;;11.30;99.90;;;;;;5028121;28;20030;-66
2023/02/16 12:11:44;;;;;;;29.08;15.27;;;11.10;99.90;;;;;;5005913;28;20028;-65
2023/02/16 12:14:31;;;;;;;27.42;14.00;;;11.00;99.90;;;;;;5004617;28;20391;-66
2023/02/16 12:17:34;;;;;;;22.05;13.15;;;11.10;99.90;;;;;;5027244;28;20546;-66
2023/02/16 12:20:34;;;;;;;26.85;12.75;;;11.10;99.90;;;;;;5032861;28;20398;-66
2023/02/16 12:23:27;;;;;;;28.48;15.77;;;11.10;99.90;;;;;;5031163;28;20017;-67
2023/02/16 12:25:55;;;;;;;36.95;18.95;;;10.80;99.90;;;;;;5023981;28;20039;-66
2023/02/16 12:28:30;;;;;;;27.70;14.82;;;10.70;99.90;;;;;;5034314;28;20120;-66
2023/02/16 12:31:33;;;;;;;27.50;13.68;;;10.60;99.90;;;;;;5022349;28;20096;-66
2023/02/16 12:34:11;;;;;;;23.55;14.27;;;10.50;99.90;;;;;;5032759;28;20048;-66
2023/02/16 12:36:36;;;;;;;25.05;14.27;;;10.40;99.90;;;;;;5030225;28;20397;-66
2023/02/16 12:39:24;;;;;;;24.40;12.85;;;10.30;99.90;;;;;;5036639;28;20014;-66
2023/02/16 12:42:07;;;;;;;26.88;13.85;;;10.20;99.90;;;;;;5028684;28;20025;-66
2023/02/16 12:44:47;;;;;;;26.10;14.60;;;10.10;99.90;;;;;;5027104;28;20056;-66
2023/02/16 12:47:33;;;;;;;31.02;16.38;;;10.00;99.90;;;;;;5040329;28;20031;-67
2023/02/16 12:50:02;;;;;;;21.55;13.35;;;9.90;99.90;;;;;;5037225;28;20448;-66
2023/02/16 12:52:40;;;;;;;33.40;16.77;;;9.90;99.90;;;;;;5026890;28;20076;-66
2023/02/16 12:55:10;;;;;;;31.88;17.48;;;10.00;99.90;;;;;;5028115;28;20021;-66
2023/02/16 12:57:41;;;;;;;34.55;18.80;;;10.00;99.90;;;;;;5027923;28;20025;-66
2023/02/16 13:00:16;;;;;;;44.42;20.67;;;10.10;99.90;;;;;;5040135;28;20484;-65
2023/02/16 13:02:48;;;;;;;30.48;15.18;;;10.20;99.90;;;;;;5049981;28;20033;-66
2023/02/16 13:05:21;;;;;;;27.10;14.90;;;10.20;99.90;;;;;;5042715;28;20022;-66
2023/02/16 13:07:55;;;;;;;27.05;15.18;;;10.30;99.90;;;;;;5031772;28;20443;-66
2023/02/16 13:10:23;;;;;;;25.33;13.65;;;10.50;99.90;;;;;;5041147;28;20026;-66
2023/02/16 13:13:03;;;;;;;25.30;13.65;;;10.50;99.90;;;;;;5019671;28;20044;-66
2023/02/16 13:15:42;;;;;;;24.02;13.65;;;10.50;99.90;;;;;;5028669;28;20108;-66
2023/02/16 13:18:22;;;;;;;21.77;12.55;;;10.50;99.90;;;;;;5026395;28;20029;-65
2023/02/16 13:20:53;;;;;;;27.65;16.15;;;10.60;99.90;;;;;;5028606;28;20079;-66
2023/02/16 13:23:38;;;;;;;22.00;12.85;;;10.60;99.90;;;;;;5026670;28;20080;-66
2023/02/16 13:26:09;;;;;;;30.20;15.55;;;10.70;99.90;;;;;;5025335;28;20030;-65
2023/02/16 13:28:44;;;;;;;27.67;13.88;;;10.70;99.90;;;;;;5028617;28;20053;-66
2023/02/16 13:31:28;;;;;;;23.40;12.38;;;10.80;99.90;;;;;;5040425;28;20167;-66
2023/02/16 13:34:19;;;;;;;22.15;11.70;;;10.70;99.90;;;;;;5050230;28;20028;-66
2023/02/16 13:37:03;;;;;;;20.20;11.70;;;10.80;99.90;;;;;;4992716;28;20091;-66
2023/02/16 13:39:47;;;;;;;;;;;10.90;99.90;;;;;;5035819;28;20022;-66